createdAt,value
2023-01-06T00:02:01.421Z,8.22
2023-01-06T00:04:47.160Z,8.23
2023-01-06T00:07:32.879Z,8.26
2023-01-06T00:10:19.110Z,8.27
2023-01-06T00:13:06.841Z,8.27
2023-01-06T00:15:55.385Z,8.27
2023-01-06T00:18:41.865Z,8.25
2023-01-06T00:21:27.677Z,8.25
2023-01-06T00:24:13.348Z,8.25
2023-01-06T00:26:59.233Z,8.24
2023-01-06T00:29:45.019Z,8.27
2023-01-06T00:32:32.297Z,8.25
2023-01-06T00:35:18.022Z,8.27
2023-01-06T00:38:03.841Z,8.26
2023-01-06T00:40:49.589Z,8.29
2023-01-06T00:43:35.348Z,8.31
2023-01-06T00:46:21.216Z,8.30
2023-01-06T00:49:08.913Z,8.31
2023-01-06T00:51:54.933Z,8.31
2023-01-06T00:54:40.955Z,8.33
2023-01-06T00:57:27.200Z,8.33
2023-01-06T01:00:13.283Z,8.33
2023-01-06T01:02:59.261Z,8.35
2023-01-06T01:05:46.363Z,8.37
2023-01-06T01:08:32.221Z,8.39
2023-01-06T01:11:31.962Z,8.38
2023-01-06T01:14:18.806Z,8.43
2023-01-06T01:17:04.811Z,8.42
2023-01-06T01:19:50.928Z,8.45
2023-01-06T01:22:38.176Z,8.48
2023-01-06T01:25:24.053Z,8.46
2023-01-06T01:28:09.856Z,8.48
2023-01-06T01:30:59.681Z,8.50
2023-01-06T01:33:45.531Z,8.50
2023-01-06T01:36:31.413Z,8.53
2023-01-06T01:39:19.841Z,8.51
2023-01-06T01:42:07.473Z,8.52
2023-01-06T01:44:54.845Z,8.52
2023-01-06T01:47:42.997Z,8.51
2023-01-06T01:50:31.154Z,8.51
2023-01-06T01:53:17.730Z,8.51
2023-01-06T01:56:05.949Z,8.48
2023-01-06T01:58:53.777Z,8.50
2023-01-06T02:01:39.548Z,8.50
2023-01-06T02:04:26.070Z,8.48
2023-01-06T02:07:11.834Z,8.50
2023-01-06T02:10:00.940Z,8.48
2023-01-06T02:12:49.238Z,8.49
2023-01-06T02:15:35.215Z,8.50
2023-01-06T02:18:27.829Z,8.50
2023-01-06T02:21:28.819Z,8.50
2023-01-06T02:24:27.120Z,8.51
2023-01-06T02:27:20.561Z,8.52
2023-01-06T02:30:13.756Z,8.53
2023-01-06T02:33:03.978Z,8.54
2023-01-06T02:35:55.271Z,8.56
2023-01-06T02:38:44.716Z,8.57
2023-01-06T02:41:32.880Z,8.59
2023-01-06T02:44:20.243Z,8.61
2023-01-06T02:47:10.809Z,8.64
2023-01-06T02:49:59.885Z,8.64
2023-01-06T02:52:47.224Z,8.67
2023-01-06T02:55:34.734Z,8.68
2023-01-06T02:58:23.384Z,8.72
2023-01-06T03:01:10.767Z,8.72
2023-01-06T03:03:57.277Z,8.74
2023-01-06T03:06:46.728Z,8.75
2023-01-06T03:09:35.651Z,8.78
2023-01-06T03:12:23.689Z,8.80
2023-01-06T03:15:10.628Z,8.82
2023-01-06T03:17:56.569Z,8.84
2023-01-06T03:20:42.244Z,8.86
2023-01-06T03:23:29.362Z,8.88
2023-01-06T03:26:15.396Z,8.87
2023-01-06T03:29:01.791Z,8.90
2023-01-06T03:31:50.619Z,8.90
2023-01-06T03:34:40.976Z,8.92
2023-01-06T03:37:28.125Z,8.94
2023-01-06T03:40:18.967Z,8.96
2023-01-06T03:43:13.513Z,8.99
2023-01-06T03:46:08.438Z,8.99
2023-01-06T03:48:59.390Z,9.01
2023-01-06T03:51:47.895Z,9.03
2023-01-06T03:54:37.945Z,9.02
2023-01-06T03:57:25.772Z,9.03
2023-01-06T04:00:13.371Z,9.03
2023-01-06T04:02:59.160Z,9.03
2023-01-06T04:05:46.075Z,9.02
2023-01-06T04:08:32.323Z,9.06
2023-01-06T04:11:33.389Z,9.04
2023-01-06T04:14:20.796Z,9.06
2023-01-06T04:17:07.091Z,9.07
2023-01-06T04:19:53.822Z,9.08
2023-01-06T04:22:40.268Z,9.09
2023-01-06T04:25:27.065Z,9.11
2023-01-06T04:28:13.317Z,9.10
2023-01-06T04:31:01.132Z,9.10
2023-01-06T04:33:47.573Z,9.11
2023-01-06T04:36:34.143Z,9.12
2023-01-06T04:39:20.098Z,9.14
2023-01-06T04:42:05.745Z,9.17
2023-01-06T04:44:51.581Z,9.17
2023-01-06T04:47:38.641Z,9.19
2023-01-06T04:50:24.406Z,9.18
2023-01-06T04:53:10.917Z,9.18
2023-01-06T04:55:56.614Z,9.18
2023-01-06T04:58:42.476Z,9.19
2023-01-06T05:01:28.674Z,9.19
2023-01-06T05:04:16.111Z,9.20
2023-01-06T05:07:02.051Z,9.18
2023-01-06T05:09:47.934Z,9.21
2023-01-06T05:12:33.745Z,9.21
2023-01-06T05:15:20.043Z,9.19
2023-01-06T05:18:06.301Z,9.17
2023-01-06T05:20:53.389Z,9.19
2023-01-06T05:23:39.732Z,9.20
2023-01-06T05:26:26.873Z,9.20
2023-01-06T05:29:12.917Z,9.18
2023-01-06T05:31:59.010Z,9.17
2023-01-06T05:34:44.790Z,9.16
2023-01-06T05:37:31.905Z,9.15
2023-01-06T05:40:17.776Z,9.16
2023-01-06T05:43:03.648Z,9.13
2023-01-06T05:45:50.031Z,9.17
2023-01-06T05:48:36.550Z,9.18
2023-01-06T05:51:22.558Z,9.19
2023-01-06T05:54:10.256Z,9.17
2023-01-06T05:56:56.505Z,9.18
2023-01-06T05:59:42.770Z,9.19
2023-01-06T06:02:28.741Z,9.16
2023-01-06T06:05:14.726Z,9.16
2023-01-06T06:08:00.901Z,9.19
2023-01-06T06:10:48.280Z,9.17
2023-01-06T06:13:34.095Z,9.20
2023-01-06T06:16:20.844Z,9.16
2023-01-06T06:19:07.180Z,9.19
2023-01-06T06:21:53.251Z,9.19
2023-01-06T06:24:39.235Z,9.18
2023-01-06T06:27:26.489Z,9.17
2023-01-06T06:30:12.613Z,9.17
2023-01-06T06:32:58.695Z,9.18
2023-01-06T06:35:44.668Z,9.17
2023-01-06T06:38:30.501Z,9.19
2023-01-06T06:41:16.477Z,9.17
2023-01-06T06:44:05.100Z,9.14
2023-01-06T06:46:51.021Z,9.15
2023-01-06T06:49:36.964Z,9.15
2023-01-06T06:52:22.700Z,9.13
2023-01-06T06:55:08.827Z,9.15
2023-01-06T06:57:54.909Z,9.17
2023-01-06T07:00:41.872Z,9.19
2023-01-06T07:03:27.603Z,9.14
2023-01-06T07:06:14.131Z,9.13
2023-01-06T07:08:59.837Z,9.13
2023-01-06T07:11:45.615Z,9.15
2023-01-06T07:14:31.448Z,9.17
2023-01-06T07:17:18.522Z,9.18
2023-01-06T07:20:04.731Z,9.19
2023-01-06T07:22:51.025Z,9.18
2023-01-06T07:25:36.780Z,9.22
2023-01-06T07:28:22.696Z,9.23
2023-01-06T07:31:08.469Z,9.24
2023-01-06T07:33:55.977Z,9.26
2023-01-06T07:36:41.665Z,9.28
2023-01-06T07:39:27.487Z,9.29
2023-01-06T07:42:13.465Z,9.27
2023-01-06T07:44:59.317Z,9.29
2023-01-06T07:47:44.913Z,9.30
2023-01-06T07:50:32.260Z,9.32
2023-01-06T07:53:18.135Z,9.35
2023-01-06T07:56:04.493Z,9.35
2023-01-06T07:58:50.691Z,9.36
2023-01-06T08:01:36.761Z,9.36
2023-01-06T08:04:22.927Z,9.40
2023-01-06T08:07:10.137Z,9.38
2023-01-06T08:09:55.901Z,9.43
2023-01-06T08:12:41.570Z,9.42
2023-01-06T08:15:28.212Z,9.42
2023-01-06T08:18:14.234Z,9.44
2023-01-06T08:21:00.692Z,9.46
2023-01-06T08:23:48.002Z,9.48
2023-01-06T08:26:33.716Z,9.50
2023-01-06T08:29:19.479Z,9.53
2023-01-06T08:32:10.741Z,9.53
2023-01-06T08:34:56.714Z,9.55
2023-01-06T08:37:42.455Z,9.55
2023-01-06T08:40:29.702Z,9.58
2023-01-06T08:43:15.430Z,9.59
2023-01-06T08:46:01.570Z,9.58
2023-01-06T08:48:47.763Z,9.61
2023-01-06T08:51:34.798Z,9.62
2023-01-06T08:54:20.710Z,9.64
2023-01-06T08:57:08.999Z,9.65
2023-01-06T08:59:54.888Z,9.64
2023-01-06T09:02:40.676Z,9.65
2023-01-06T09:05:26.550Z,9.66
2023-01-06T09:08:12.342Z,9.64
2023-01-06T09:10:58.109Z,9.66
2023-01-06T09:13:45.366Z,9.64
2023-01-06T09:16:31.394Z,9.65
2023-01-06T09:19:17.402Z,9.66
2023-01-06T09:22:03.319Z,9.64
2023-01-06T09:24:49.179Z,9.63
2023-01-06T09:27:35.194Z,9.63
2023-01-06T09:30:25.062Z,9.61
2023-01-06T09:33:11.004Z,9.62
2023-01-06T09:35:56.770Z,9.62
2023-01-06T09:38:42.572Z,9.63
2023-01-06T09:41:49.786Z,9.63
2023-01-06T09:44:37.545Z,9.63
2023-01-06T09:47:25.973Z,9.62
2023-01-06T09:50:14.715Z,9.61
2023-01-06T09:53:01.343Z,9.59
2023-01-06T09:55:48.055Z,9.57
2023-01-06T09:58:34.964Z,9.56
2023-01-06T10:01:23.297Z,9.51
2023-01-06T10:04:11.604Z,9.50
2023-01-06T10:07:00.828Z,9.52
2023-01-06T10:09:49.824Z,9.54
2023-01-06T10:12:41.960Z,9.53
2023-01-06T10:15:30.802Z,9.56
2023-01-06T10:18:19.736Z,9.62
2023-01-06T10:21:09.802Z,9.61
2023-01-06T10:23:58.685Z,9.64
2023-01-06T10:26:44.945Z,9.66
2023-01-06T10:29:31.818Z,9.67
2023-01-06T10:32:18.013Z,9.66
2023-01-06T10:35:04.206Z,9.68
2023-01-06T10:37:52.211Z,9.64
2023-01-06T10:40:38.133Z,9.65
2023-01-06T10:43:24.067Z,9.63
2023-01-06T10:46:09.914Z,9.65
2023-01-06T10:48:55.754Z,9.60
2023-01-06T10:51:42.392Z,9.63
2023-01-06T10:54:29.973Z,9.63
2023-01-06T10:57:17.440Z,9.62
2023-01-06T11:00:10.344Z,9.62
2023-01-06T11:03:09.219Z,9.63
2023-01-06T11:06:01.583Z,9.58
2023-01-06T11:08:47.639Z,9.57
2023-01-06T11:11:34.883Z,9.60
2023-01-06T11:14:21.700Z,9.65
2023-01-06T11:17:08.787Z,9.64
2023-01-06T11:20:06.021Z,9.67
2023-01-06T11:22:52.000Z,9.73
2023-01-06T11:25:37.816Z,9.79
2023-01-06T11:28:25.131Z,9.78
2023-01-06T11:31:11.542Z,9.86
2023-01-06T11:33:58.020Z,9.89
2023-01-06T11:36:45.682Z,9.92
2023-01-06T11:39:33.678Z,9.92
2023-01-06T11:42:19.327Z,9.93
2023-01-06T11:45:07.132Z,9.95
2023-01-06T11:47:52.841Z,9.95
2023-01-06T11:50:38.872Z,9.98
2023-01-06T11:53:25.542Z,9.98
2023-01-06T11:56:18.147Z,9.98
2023-01-06T11:59:05.055Z,9.96
2023-01-06T12:01:53.694Z,10.05
2023-01-06T12:04:39.928Z,10.18
2023-01-06T12:07:28.004Z,10.36
2023-01-06T12:10:16.024Z,10.54
2023-01-06T12:13:01.746Z,10.77
2023-01-06T12:15:47.886Z,10.84
2023-01-06T12:18:35.749Z,10.84
2023-01-06T12:21:24.351Z,10.88
2023-01-06T12:24:11.160Z,11.06
2023-01-06T12:26:57.169Z,11.18
2023-01-06T12:29:43.063Z,11.30
2023-01-06T12:32:38.514Z,11.49
2023-01-06T12:35:27.562Z,11.37
2023-01-06T12:38:15.688Z,11.36
2023-01-06T12:41:02.427Z,11.30
2023-01-06T12:43:50.850Z,11.19
2023-01-06T12:46:37.049Z,11.05
2023-01-06T12:49:24.052Z,10.94
2023-01-06T12:52:12.312Z,10.73
2023-01-06T12:54:59.028Z,10.64
2023-01-06T12:57:47.921Z,10.54
2023-01-06T13:00:37.879Z,10.41
2023-01-06T13:03:31.478Z,10.31
2023-01-06T13:06:26.623Z,10.16
2023-01-06T13:09:18.333Z,10.10
2023-01-06T13:12:23.717Z,10.00
2023-01-06T13:15:12.228Z,9.90
2023-01-06T13:18:00.796Z,9.85
2023-01-06T13:20:47.675Z,9.74
2023-01-06T13:23:41.527Z,9.75
2023-01-06T13:26:32.823Z,9.64
2023-01-06T13:29:21.602Z,9.65
2023-01-06T13:32:12.020Z,9.67
2023-01-06T13:35:01.854Z,9.68
2023-01-06T13:37:52.310Z,9.68
2023-01-06T13:40:38.819Z,9.65
2023-01-06T13:43:26.763Z,9.68
2023-01-06T13:46:13.167Z,9.67
2023-01-06T13:48:59.711Z,9.64
2023-01-06T13:51:45.667Z,9.61
2023-01-06T13:54:51.012Z,9.69
2023-01-06T13:57:38.665Z,9.86
2023-01-06T14:00:26.920Z,9.99
2023-01-06T14:03:22.825Z,10.17
2023-01-06T14:06:10.729Z,10.11
2023-01-06T14:08:57.608Z,10.02
2023-01-06T14:11:43.357Z,9.96
2023-01-06T14:14:30.804Z,9.84
2023-01-06T14:17:28.772Z,9.81
2023-01-06T14:20:20.489Z,9.74
2023-01-06T14:23:06.685Z,9.73
2023-01-06T14:25:53.212Z,9.69
2023-01-06T14:28:39.361Z,9.64
2023-01-06T14:31:46.457Z,9.57
2023-01-06T14:34:33.818Z,9.50
2023-01-06T14:37:20.020Z,9.45
2023-01-06T14:40:06.677Z,9.34
2023-01-06T14:42:52.483Z,9.34
2023-01-06T14:45:39.522Z,9.27
2023-01-06T14:48:25.722Z,9.23
2023-01-06T14:51:14.536Z,9.12
2023-01-06T14:54:04.022Z,9.05
2023-01-06T14:56:52.929Z,8.98
2023-01-06T14:59:38.612Z,8.94
2023-01-06T15:02:25.872Z,8.83
2023-01-06T15:05:16.665Z,8.74
2023-01-06T15:08:04.517Z,8.66
2023-01-06T15:10:51.289Z,8.54
2023-01-06T15:13:37.375Z,8.49
2023-01-06T15:16:25.012Z,8.39
2023-01-06T15:19:13.529Z,8.34
2023-01-06T15:22:00.123Z,8.26
2023-01-06T15:24:47.590Z,8.15
2023-01-06T15:27:33.538Z,8.06
2023-01-06T15:30:20.134Z,8.01
2023-01-06T15:33:05.944Z,7.92
2023-01-06T15:35:51.761Z,7.88
2023-01-06T15:38:38.041Z,7.84
2023-01-06T15:41:34.206Z,7.81
2023-01-06T15:44:22.199Z,7.81
2023-01-06T15:47:10.280Z,7.71
2023-01-06T15:49:57.448Z,7.68
2023-01-06T15:52:45.341Z,7.66
2023-01-06T15:55:32.628Z,7.70
2023-01-06T15:58:21.466Z,7.67
2023-01-06T16:01:08.012Z,7.69
2023-01-06T16:03:54.480Z,7.67
2023-01-06T16:06:40.859Z,7.69
2023-01-06T16:09:27.761Z,7.68
2023-01-06T16:12:17.835Z,7.66
2023-01-06T16:15:18.688Z,7.65
2023-01-06T16:18:07.440Z,7.66
2023-01-06T16:20:53.414Z,7.67
2023-01-06T16:23:39.157Z,7.63
2023-01-06T16:26:25.785Z,7.62
2023-01-06T16:29:23.269Z,7.58
2023-01-06T16:32:20.633Z,7.54
2023-01-06T16:35:11.693Z,7.52
2023-01-06T16:37:57.724Z,7.51
2023-01-06T16:40:43.552Z,7.50
2023-01-06T16:43:29.557Z,7.50
2023-01-06T16:46:17.699Z,7.49
2023-01-06T16:49:09.290Z,7.47
2023-01-06T16:51:56.861Z,7.44
2023-01-06T16:54:42.766Z,7.40
2023-01-06T16:57:28.594Z,7.33
2023-01-06T17:00:15.228Z,7.28
2023-01-06T17:03:01.474Z,7.22
2023-01-06T17:05:47.302Z,7.13
2023-01-06T17:08:35.871Z,7.11
2023-01-06T17:11:22.548Z,7.09
2023-01-06T17:14:11.141Z,7.10
2023-01-06T17:16:56.870Z,7.08
2023-01-06T17:19:42.821Z,7.09
2023-01-06T17:22:29.279Z,7.11
2023-01-06T17:25:16.337Z,7.11
2023-01-06T17:28:02.231Z,7.11
2023-01-06T17:30:48.108Z,7.16
2023-01-06T17:33:34.004Z,7.14
2023-01-06T17:36:22.796Z,7.17
2023-01-06T17:39:13.331Z,7.17
2023-01-06T17:42:02.776Z,7.18
2023-01-06T17:44:49.309Z,7.16
2023-01-06T17:47:36.504Z,7.14
2023-01-06T17:50:29.156Z,7.10
2023-01-06T17:53:33.369Z,7.05
2023-01-06T17:56:20.344Z,7.01
2023-01-06T17:59:10.419Z,6.99
2023-01-06T18:01:56.548Z,7.03
2023-01-06T18:04:42.341Z,7.02
2023-01-06T18:07:28.563Z,7.03
2023-01-06T18:10:15.339Z,7.02
2023-01-06T18:13:01.322Z,7.00
2023-01-06T18:15:48.937Z,7.00
2023-01-06T18:18:36.950Z,6.98
2023-01-06T18:21:26.737Z,6.97
2023-01-06T18:24:16.682Z,7.00
2023-01-06T18:27:04.040Z,7.02
2023-01-06T18:29:50.125Z,7.05
2023-01-06T18:32:37.921Z,7.09
2023-01-06T18:35:27.546Z,7.10
2023-01-06T18:38:13.329Z,7.06
2023-01-06T18:40:59.119Z,7.09
2023-01-06T18:43:44.997Z,7.07
2023-01-06T18:46:31.172Z,7.07
2023-01-06T18:49:18.983Z,7.05
2023-01-06T18:52:08.869Z,7.05
2023-01-06T18:54:55.018Z,7.04
2023-01-06T18:57:45.631Z,7.03
2023-01-06T19:00:41.620Z,6.98
2023-01-06T19:03:32.827Z,6.96
2023-01-06T19:06:33.661Z,6.91
2023-01-06T19:09:22.559Z,6.84
2023-01-06T19:12:16.527Z,6.78
2023-01-06T19:15:09.658Z,6.72
2023-01-06T19:17:55.565Z,6.70
2023-01-06T19:20:41.905Z,6.71
2023-01-06T19:23:27.895Z,6.72
2023-01-06T19:26:16.845Z,6.70
2023-01-06T19:29:02.951Z,6.61
2023-01-06T19:31:50.110Z,6.57
2023-01-06T19:34:36.261Z,6.48
2023-01-06T19:37:21.958Z,6.44
2023-01-06T19:40:08.534Z,6.38
2023-01-06T19:42:55.762Z,6.32
2023-01-06T19:45:41.681Z,6.24
2023-01-06T19:48:30.300Z,6.18
2023-01-06T19:51:20.389Z,6.16
2023-01-06T19:54:13.170Z,6.11
2023-01-06T19:56:59.124Z,6.15
2023-01-06T19:59:46.164Z,6.07
2023-01-06T20:02:32.931Z,6.11
2023-01-06T20:05:19.206Z,6.19
2023-01-06T20:08:05.338Z,6.28
2023-01-06T20:10:51.086Z,6.35
2023-01-06T20:13:36.898Z,6.44
2023-01-06T20:16:24.010Z,6.51
2023-01-06T20:19:09.853Z,6.57
2023-01-06T20:21:56.244Z,6.65
2023-01-06T20:24:42.171Z,6.68
2023-01-06T20:27:28.181Z,6.70
2023-01-06T20:30:14.096Z,6.67
2023-01-06T20:33:02.081Z,6.66
2023-01-06T20:35:48.248Z,6.63
2023-01-06T20:38:33.936Z,6.61
2023-01-06T20:41:19.661Z,6.54
2023-01-06T20:44:05.603Z,6.51
2023-01-06T20:46:51.322Z,6.50
2023-01-06T20:49:39.211Z,6.42
2023-01-06T20:52:25.377Z,6.36
2023-01-06T20:55:11.113Z,6.30
2023-01-06T20:57:56.945Z,6.24
2023-01-06T21:00:42.684Z,6.17
2023-01-06T21:03:28.424Z,6.12
2023-01-06T21:06:16.068Z,6.11
2023-01-06T21:09:01.707Z,6.14
2023-01-06T21:11:47.854Z,6.09
2023-01-06T21:14:34.099Z,6.06
2023-01-06T21:17:19.854Z,6.00
2023-01-06T21:20:06.244Z,5.99
2023-01-06T21:22:53.252Z,5.99
2023-01-06T21:25:39.117Z,6.05
2023-01-06T21:28:24.993Z,6.00
2023-01-06T21:31:10.771Z,6.00
2023-01-06T21:33:57.008Z,5.94
2023-01-06T21:36:42.896Z,5.93
2023-01-06T21:39:30.192Z,5.93
2023-01-06T21:42:33.669Z,5.96
2023-01-06T21:45:19.821Z,6.02
2023-01-06T21:48:05.803Z,5.98
2023-01-06T21:50:52.106Z,5.97
2023-01-06T21:53:38.742Z,5.96
2023-01-06T21:56:25.727Z,5.99
2023-01-06T21:59:11.510Z,6.00
2023-01-06T22:01:57.493Z,6.05
2023-01-06T22:04:43.810Z,6.06
2023-01-06T22:07:29.935Z,6.02
2023-01-06T22:10:16.288Z,6.12
2023-01-06T22:13:03.821Z,6.05
2023-01-06T22:15:49.457Z,6.05
2023-01-06T22:18:35.983Z,6.06
2023-01-06T22:21:22.108Z,6.11
2023-01-06T22:24:08.532Z,6.15
2023-01-06T22:26:54.300Z,6.16
2023-01-06T22:29:41.647Z,6.24
2023-01-06T22:32:28.399Z,6.22
2023-01-06T22:35:14.618Z,6.28
2023-01-06T22:38:00.748Z,6.28
2023-01-06T22:40:47.277Z,6.34
2023-01-06T22:43:33.038Z,6.41
2023-01-06T22:46:20.242Z,6.40
2023-01-06T22:49:06.621Z,6.42
2023-01-06T22:51:53.320Z,6.51
2023-01-06T22:54:39.205Z,6.58
2023-01-06T22:57:25.552Z,6.59
2023-01-06T23:00:12.887Z,6.64
2023-01-06T23:03:00.088Z,6.68
2023-01-06T23:05:45.921Z,6.69
2023-01-06T23:08:33.296Z,6.80
2023-01-06T23:11:20.016Z,6.85
2023-01-06T23:14:05.866Z,6.92
2023-01-06T23:16:51.793Z,7.03
2023-01-06T23:19:39.088Z,7.11
2023-01-06T23:22:25.281Z,7.25
2023-01-06T23:25:11.292Z,7.31
2023-01-06T23:27:56.984Z,7.34
2023-01-06T23:30:42.743Z,7.41
2023-01-06T23:33:28.524Z,7.46
2023-01-06T23:36:16.448Z,7.49
2023-01-06T23:39:03.095Z,7.50
2023-01-06T23:41:49.193Z,7.60
2023-01-06T23:44:35.195Z,7.68
2023-01-06T23:47:20.942Z,7.75
2023-01-06T23:50:06.939Z,7.81
2023-01-06T23:52:54.875Z,7.84
2023-01-06T23:55:40.807Z,7.88
2023-01-06T23:58:27.562Z,7.93
